LEBZLEAM

Guest
Details From LEBZ - Talavera La Real
To LEAM - Almeria
Flight Number -
Tags generated
Created
Modified
Stats Distance 255 nm / 471 km
Max Altitude 29,900 ft / 9,114 m
Waypoints 5
Social Downloads 1
Likes 0
Share VATSIM

Download

Looking for another format? Having issues loading an existing format? Contact us
Advertisement - Login to hide

Notes

Basic altitude profile: - Ascent Rate: 2500ft/min - Ascent Speed: 250kts - Cruise Altitude: 35000ft - Cruise Speed: 420kts - Descent Rate: 1500ft/min - Descent Speed: 250kts Options: - Use NATs: yes - Use PACOTS: yes - Use low airways: yes - Use high airways: yes

Route

LEBZ HIJ ALCOL BAENA LEAM

ID Type Via Altitude Latitude Longitude Leg Dist Tot Dist Heading (true) Name
O LEBZ APT - 0 ft / 0 m 38.89127˚ -6.82126˚ - 0 nm - Talavera La Real
HIJ VOR - 29,900 ft / 9,114 m 38.50813˚ -5.09968˚ 83 nm 83 nm 105° / 106° HINOJOSA VOR-DME
ALCOL FIX - 25,300 ft / 7,711 m 37.85591˚ -4.51882˚ 47 nm 131 nm 145° / 145° -
BAENA FIX - 21,100 ft / 6,431 m 37.56844˚ -4.33198˚ 19 nm 151 nm 153° / 153° -
O LEAM APT - 0 ft / 0 m 36.84393˚ -2.37010˚ 103 nm 254 nm 114° / 115° Almeria

Altitude Profile

Advertisement - Login to hide

Weather


0- 5 10 15 20 25 30 35+ Temperature / ° C

Clouds and Precipitation
Forecast for 2018-05-21 06:00 UTC. Updated an hour ago

Ground ~20,000 ft ~40,000 ft Winds

LEBZ

Details ICAO LEBZ (BJZ)
Name Talavera La Real
Region Spain
Timezone Europe/Madrid (UTC+2.0)
Stats Elevation 609 ft / 186 m (AMSL)
Location 38.891271° -6.821256°
Runways 1
Magnetic Variation 1.567° W

METAR

Not found

TAF

TAF LEBZ 202300Z 2100/2124 27005KT 9999 FEW035 TX26/2115Z TN13/2106Z PROB40 TEMPO 2103/2108 3000 BR BKN008

Decode

Departure Runways

ID Width Length Bearing (true) Bearing (mag) Surface Threshold Offset Overrun Length
13 197 ft / 60 m 9,350 ft / 2,850 m 125.72° 127.29° Asphalt 0 ft / 0 m 980 ft / 299 m
31 197 ft / 60 m 9,350 ft / 2,850 m 305.74° 307.31° Asphalt 0 ft / 0 m 980 ft / 299 m

LEAM

Details ICAO LEAM (LEI)
Name Almeria
Region Spain
Timezone Unknown (UTC+0.0)
Stats Elevation 70 ft / 21 m (AMSL)
Location 36.843935° -2.370097°
Runways 1
Magnetic Variation 0.240° W

METAR

LEAM 210400Z 01003KT 9999 FEW030 15/11 Q1012

Decode

TAF

TAF LEAM 210200Z 2103/2203 VRB02KT 9999 FEW015 TX22/2113Z TN15/2105Z PROB30 TEMPO 2104/2107 BKN012 BECMG 2110/2112 21010KT

Decode

Destination Runways

ID Width Length Bearing (true) Bearing (mag) Surface Threshold Offset Overrun Length
08 148 ft / 45 m 10,484 ft / 3,196 m 72.94° 73.18° Asphalt 492 ft / 150 m 191 ft / 58 m
26 148 ft / 45 m 10,484 ft / 3,196 m 252.96° 253.20° Asphalt 0 ft / 0 m 150 ft / 46 m

Approach Navaids

Runway Type Ident Frequency Range Bearing (true) Bearing (mag) Slope Elevation
26 Localiser IAM 109.90 MHz 18 nm / 33 km 252.94° 253.18° - 70 ft / 21 m (AMSL)
26 Glidescope IAM 109.90 MHz 10 nm / 19 km 252.95° 253.19° 3.00° 70 ft / 21 m (AMSL)
26 DME IAM 109.90 MHz 18 nm / 33 km - - - 95 ft / 29 m (AMSL)

Popular Alternatives